createdAt,value
2023-05-01T00:00:19.359Z,10.63
2023-05-01T00:01:19.292Z,10.35
2023-05-01T00:02:19.397Z,10.49
2023-05-01T00:03:19.307Z,10.51
2023-05-01T00:04:19.473Z,10.49
2023-05-01T00:05:19.216Z,10.35
2023-05-01T00:06:19.157Z,10.25
2023-05-01T00:07:19.065Z,10.34
2023-05-01T00:08:19.005Z,10.31
2023-05-01T00:09:18.973Z,10.28
2023-05-01T00:10:18.924Z,10.26
2023-05-01T00:11:18.900Z,10.16
2023-05-01T00:12:18.843Z,10.13
2023-05-01T00:13:18.837Z,10.17
2023-05-01T00:14:18.768Z,10.14
2023-05-01T00:15:19.332Z,10.11
2023-05-01T00:16:18.736Z,10.13
2023-05-01T00:17:18.652Z,10.02
2023-05-01T00:18:18.603Z,10.09
2023-05-01T00:19:18.608Z,9.98
2023-05-01T00:20:18.518Z,9.99
2023-05-01T00:21:18.481Z,9.95
2023-05-01T00:22:18.441Z,9.95
2023-05-01T00:23:18.439Z,9.96
2023-05-01T00:24:18.358Z,9.91
2023-05-01T00:25:18.362Z,9.93
2023-05-01T00:26:18.277Z,9.83
2023-05-01T00:27:18.258Z,9.86
2023-05-01T00:28:18.260Z,9.80
2023-05-01T00:29:18.171Z,9.83
2023-05-01T00:30:18.119Z,9.85
2023-05-01T00:31:18.150Z,9.83
2023-05-01T00:32:18.142Z,9.77
2023-05-01T00:33:18.003Z,9.70
2023-05-01T00:34:17.954Z,9.67
2023-05-01T00:35:17.919Z,9.65
2023-05-01T00:36:17.879Z,9.53
2023-05-01T00:37:17.849Z,9.59
2023-05-01T00:38:17.849Z,9.55
2023-05-01T00:39:17.767Z,9.55
2023-05-01T00:40:17.721Z,9.53
2023-05-01T00:41:17.680Z,9.44
2023-05-01T00:42:17.647Z,9.49
2023-05-01T00:43:17.645Z,9.45
2023-05-01T00:44:17.559Z,9.40
2023-05-01T00:45:17.514Z,9.50
2023-05-01T00:46:17.536Z,9.38
2023-05-01T00:47:17.452Z,9.38
2023-05-01T00:48:17.391Z,9.31
2023-05-01T00:49:17.370Z,9.27
2023-05-01T00:50:17.327Z,9.31
2023-05-01T00:51:17.277Z,9.26
2023-05-01T00:52:17.234Z,9.30
2023-05-01T00:53:17.193Z,9.20
2023-05-01T00:54:17.149Z,9.27
2023-05-01T00:55:17.127Z,9.26
2023-05-01T00:56:17.076Z,9.27
2023-05-01T00:57:17.038Z,9.27
2023-05-01T00:58:16.988Z,9.22
2023-05-01T01:00:50.213Z,9.20
2023-05-01T01:01:50.004Z,9.15
2023-05-01T01:02:50.021Z,9.06
2023-05-01T01:03:49.917Z,9.00
2023-05-01T01:04:49.908Z,9.04
2023-05-01T01:05:49.837Z,9.00
2023-05-01T01:06:49.872Z,9.01
2023-05-01T01:07:49.750Z,9.06
2023-05-01T01:08:49.720Z,9.04
2023-05-01T01:09:49.672Z,9.08
2023-05-01T01:10:49.662Z,8.97
2023-05-01T01:11:49.589Z,8.94
2023-05-01T01:12:49.570Z,8.91
2023-05-01T01:13:49.506Z,8.96
2023-05-01T01:14:49.482Z,8.97
2023-05-01T01:15:49.422Z,8.98
2023-05-01T01:16:49.437Z,8.85
2023-05-01T01:17:49.380Z,8.83
2023-05-01T01:18:49.315Z,8.86
2023-05-01T01:19:49.264Z,8.82
2023-05-01T01:20:49.230Z,8.76
2023-05-01T01:21:49.177Z,8.76
2023-05-01T01:22:49.142Z,8.78
2023-05-01T01:23:49.096Z,8.79
2023-05-01T01:24:49.077Z,8.76
2023-05-01T01:25:49.022Z,8.75
2023-05-01T01:26:48.975Z,8.64
2023-05-01T01:27:48.935Z,8.60
2023-05-01T01:28:48.909Z,8.71
2023-05-01T01:29:48.888Z,8.65
2023-05-01T01:30:48.841Z,8.61
2023-05-01T01:31:48.780Z,8.55
2023-05-01T01:32:48.787Z,8.67
2023-05-01T01:33:48.685Z,8.54
2023-05-01T01:34:48.653Z,8.55
2023-05-01T01:35:48.616Z,8.63
2023-05-01T01:36:48.565Z,8.65
2023-05-01T01:37:48.531Z,8.67
2023-05-01T01:38:48.486Z,8.60
2023-05-01T01:39:48.440Z,8.61
2023-05-01T01:40:48.400Z,8.54
2023-05-01T01:41:48.373Z,8.63
2023-05-01T01:42:48.320Z,8.65
2023-05-01T01:43:48.277Z,8.58
2023-05-01T01:44:48.239Z,8.47
2023-05-01T01:45:48.254Z,8.45
2023-05-01T01:46:48.186Z,8.54
2023-05-01T01:47:48.156Z,8.55
2023-05-01T01:48:48.077Z,8.58
2023-05-01T01:49:48.035Z,8.45
2023-05-01T01:50:47.993Z,8.50
2023-05-01T01:51:47.964Z,8.39
2023-05-01T01:52:47.919Z,8.40
2023-05-01T01:53:47.875Z,8.31
2023-05-01T01:54:47.827Z,8.43
2023-05-01T01:55:47.788Z,8.42
2023-05-01T01:56:47.758Z,8.43
2023-05-01T01:57:47.711Z,8.24
2023-05-01T01:58:47.663Z,8.32
2023-05-01T01:59:47.622Z,8.36
2023-05-01T02:00:47.599Z,8.32
2023-05-01T02:01:47.619Z,8.31
2023-05-01T02:02:47.538Z,8.29
2023-05-01T02:03:47.611Z,8.28
2023-05-01T02:04:47.419Z,8.32
2023-05-01T02:05:47.402Z,8.24
2023-05-01T02:06:47.384Z,8.31
2023-05-01T02:07:47.299Z,8.31
2023-05-01T02:08:47.248Z,8.37
2023-05-01T02:09:47.208Z,8.34
2023-05-01T02:10:47.183Z,8.29
2023-05-01T02:11:47.131Z,8.28
2023-05-01T02:12:47.108Z,8.27
2023-05-01T02:13:47.050Z,8.22
2023-05-01T02:14:47.095Z,8.28
2023-05-01T02:15:46.987Z,8.29
2023-05-01T02:16:46.922Z,8.22
2023-05-01T02:17:46.893Z,8.24
2023-05-01T02:18:46.848Z,8.27
2023-05-01T02:19:46.813Z,8.28
2023-05-01T02:20:46.761Z,8.29
2023-05-01T02:21:46.744Z,8.22
2023-05-01T02:22:46.684Z,8.28
2023-05-01T02:23:46.637Z,8.29
2023-05-01T02:24:46.598Z,8.28
2023-05-01T02:25:46.562Z,8.21
2023-05-01T02:26:46.521Z,8.22
2023-05-01T02:27:46.469Z,8.31
2023-05-01T02:28:46.433Z,8.28
2023-05-01T02:29:46.388Z,8.22
2023-05-01T02:30:46.354Z,8.24
2023-05-01T02:31:46.368Z,8.37
2023-05-01T02:32:46.286Z,8.39
2023-05-01T02:33:46.223Z,8.39
2023-05-01T02:34:46.186Z,8.45
2023-05-01T02:35:46.140Z,8.39
2023-05-01T02:36:46.113Z,8.39
2023-05-01T02:37:46.083Z,8.46
2023-05-01T02:38:46.022Z,8.46
2023-05-01T02:39:45.980Z,8.46
2023-05-01T02:40:45.961Z,8.45
2023-05-01T02:41:45.893Z,8.47
2023-05-01T02:42:45.893Z,8.50
2023-05-01T02:43:45.815Z,8.50
2023-05-01T02:44:45.802Z,8.49
2023-05-01T02:45:45.830Z,8.37
2023-05-01T02:46:45.753Z,8.49
2023-05-01T02:47:45.693Z,8.46
2023-05-01T02:48:45.613Z,8.49
2023-05-01T02:49:45.570Z,8.45
2023-05-01T02:50:45.524Z,8.50
2023-05-01T02:51:45.493Z,8.60
2023-05-01T02:52:45.438Z,8.49
2023-05-01T02:53:45.399Z,8.52
2023-05-01T02:54:45.385Z,8.49
2023-05-01T02:55:45.316Z,8.55
2023-05-01T02:56:45.277Z,8.47
2023-05-01T02:57:45.267Z,8.54
2023-05-01T02:58:45.198Z,8.42
2023-05-01T02:59:45.158Z,8.47
2023-05-01T03:00:45.175Z,8.40
2023-05-01T03:01:45.175Z,8.45
2023-05-01T03:02:45.077Z,8.47
2023-05-01T03:03:45.035Z,8.50
2023-05-01T03:04:45.042Z,8.54
2023-05-01T03:05:44.906Z,8.50
2023-05-01T03:06:45.086Z,8.58
2023-05-01T03:07:44.821Z,8.50
2023-05-01T03:08:44.786Z,8.57
2023-05-01T03:09:44.759Z,8.46
2023-05-01T03:10:44.726Z,8.58
2023-05-01T03:11:44.668Z,8.67
2023-05-01T03:12:44.616Z,8.79
2023-05-01T03:13:44.598Z,8.82
2023-05-01T03:14:44.541Z,9.01
2023-05-01T03:15:44.502Z,8.91
2023-05-01T03:16:44.559Z,9.03
2023-05-01T03:17:44.419Z,9.04
2023-05-01T03:18:44.376Z,9.17
2023-05-01T03:19:44.328Z,9.37
2023-05-01T03:20:44.295Z,9.42
2023-05-01T03:21:44.256Z,9.40
2023-05-01T03:22:44.229Z,9.56
2023-05-01T03:23:44.191Z,9.58
2023-05-01T03:24:44.147Z,9.67
2023-05-01T03:25:44.084Z,9.75
2023-05-01T03:26:44.066Z,9.92
2023-05-01T03:27:43.993Z,9.93
2023-05-01T03:28:43.958Z,10.01
2023-05-01T03:29:43.945Z,10.01
2023-05-01T03:30:43.880Z,10.07
2023-05-01T03:31:43.868Z,10.22
2023-05-01T03:32:43.818Z,10.35
2023-05-01T03:33:43.750Z,10.24
2023-05-01T03:34:43.739Z,10.14
2023-05-01T03:35:43.704Z,10.13
2023-05-01T03:36:43.628Z,10.31
2023-05-01T03:37:43.597Z,10.17
2023-05-01T03:38:43.555Z,10.14
2023-05-01T03:39:43.504Z,10.18
2023-05-01T03:40:43.462Z,10.11
2023-05-01T03:41:43.438Z,10.29
2023-05-01T03:42:43.384Z,10.32
2023-05-01T03:43:43.340Z,10.43
2023-05-01T03:44:43.306Z,10.66
2023-05-01T03:45:44.885Z,10.69
2023-05-01T03:46:43.313Z,10.54
2023-05-01T03:47:43.258Z,10.72
2023-05-01T03:48:43.143Z,10.66
2023-05-01T03:49:43.097Z,10.62
2023-05-01T03:50:43.083Z,10.68
2023-05-01T03:51:43.018Z,10.65
2023-05-01T03:52:43.015Z,10.72
2023-05-01T03:53:42.946Z,10.69
2023-05-01T03:54:42.904Z,10.81
2023-05-01T03:55:42.857Z,10.93
2023-05-01T03:56:42.811Z,10.90
2023-05-01T03:57:42.776Z,10.90
2023-05-01T03:58:42.732Z,10.93
2023-05-01T03:59:42.698Z,10.88
2023-05-01T04:00:42.663Z,10.91
2023-05-01T04:01:42.645Z,11.03
2023-05-01T04:02:42.766Z,11.17
2023-05-01T04:03:42.587Z,11.26
2023-05-01T04:04:42.537Z,11.24
2023-05-01T04:05:42.460Z,11.16
2023-05-01T04:06:42.454Z,11.16
2023-05-01T04:07:42.379Z,11.16
2023-05-01T04:08:42.326Z,11.12
2023-05-01T04:09:42.280Z,11.16
2023-05-01T04:10:42.248Z,11.02
2023-05-01T04:11:42.201Z,10.91
2023-05-01T04:12:42.175Z,10.94
2023-05-01T04:13:42.131Z,10.87
2023-05-01T04:14:42.086Z,10.86
2023-05-01T04:15:42.108Z,10.88
2023-05-01T04:16:42.071Z,10.99
2023-05-01T04:17:41.961Z,11.03
2023-05-01T04:18:41.949Z,11.27
2023-05-01T04:19:41.887Z,11.12
2023-05-01T04:20:41.843Z,11.06
2023-05-01T04:21:41.794Z,11.05
2023-05-01T04:22:41.753Z,11.11
2023-05-01T04:23:41.721Z,11.12
2023-05-01T04:24:41.703Z,11.19
2023-05-01T04:25:41.637Z,11.24
2023-05-01T04:26:41.605Z,11.26
2023-05-01T04:27:41.554Z,11.24
2023-05-01T04:28:41.522Z,11.31
2023-05-01T04:29:41.492Z,11.30
2023-05-01T04:30:41.438Z,11.30
2023-05-01T04:31:41.430Z,11.30
2023-05-01T04:32:41.442Z,11.30
2023-05-01T04:33:41.309Z,11.26
2023-05-01T04:34:41.274Z,11.21
2023-05-01T04:35:41.240Z,11.24
2023-05-01T04:36:41.196Z,11.19
2023-05-01T04:37:41.168Z,11.03
2023-05-01T04:38:41.104Z,10.93
2023-05-01T04:39:41.072Z,11.03
2023-05-01T04:40:41.028Z,11.02
2023-05-01T04:41:41.005Z,11.05
2023-05-01T04:42:40.947Z,11.11
2023-05-01T04:43:40.901Z,11.24
2023-05-01T04:44:40.867Z,11.26
2023-05-01T04:45:40.837Z,11.51
2023-05-01T04:46:40.833Z,11.45
2023-05-01T04:47:40.761Z,11.56
2023-05-01T04:48:40.703Z,11.59
2023-05-01T04:49:40.660Z,11.63
2023-05-01T04:50:40.625Z,11.67
2023-05-01T04:51:40.585Z,11.67
2023-05-01T04:52:40.565Z,11.75
2023-05-01T04:53:40.512Z,11.75
2023-05-01T04:54:40.460Z,11.75
2023-05-01T04:55:40.427Z,11.82
2023-05-01T04:56:40.378Z,11.90
2023-05-01T04:57:40.339Z,11.96
2023-05-01T04:58:40.308Z,12.12
2023-05-01T04:59:40.257Z,12.13
2023-05-01T05:00:40.214Z,12.04
2023-05-01T05:01:40.224Z,12.15
2023-05-01T05:02:40.267Z,12.13
2023-05-01T05:03:40.187Z,12.26
2023-05-01T05:04:40.072Z,12.31
2023-05-01T05:05:40.028Z,12.37
2023-05-01T05:06:40.020Z,12.46
2023-05-01T05:07:39.942Z,12.44
2023-05-01T05:08:39.915Z,12.55
2023-05-01T05:09:39.865Z,12.52
2023-05-01T05:10:39.836Z,12.55
2023-05-01T05:11:39.783Z,12.67
2023-05-01T05:12:39.737Z,12.67
2023-05-01T05:13:39.706Z,12.74
2023-05-01T05:14:39.658Z,12.70
2023-05-01T05:15:39.629Z,12.74
2023-05-01T05:16:39.656Z,12.66
2023-05-01T05:17:39.562Z,12.73
2023-05-01T05:18:39.512Z,12.74
2023-05-01T05:19:39.476Z,12.84
2023-05-01T05:20:39.418Z,12.94
2023-05-01T05:21:39.404Z,12.91
2023-05-01T05:22:39.340Z,12.91
2023-05-01T05:23:39.312Z,12.98
2023-05-01T05:24:39.273Z,13.03
2023-05-01T05:25:39.232Z,13.01
2023-05-01T05:26:39.183Z,13.04
2023-05-01T05:27:39.182Z,13.07
2023-05-01T05:28:39.117Z,13.06
2023-05-01T05:29:39.076Z,13.13
2023-05-01T05:30:39.061Z,13.17
2023-05-01T05:31:39.022Z,13.21
2023-05-01T05:32:38.991Z,13.35
2023-05-01T05:33:38.933Z,13.31
2023-05-01T05:34:38.896Z,13.46
2023-05-01T05:35:38.846Z,13.32
2023-05-01T05:36:38.799Z,13.51
2023-05-01T05:37:38.765Z,13.54
2023-05-01T05:38:38.722Z,13.73
2023-05-01T05:39:38.687Z,13.75
2023-05-01T05:40:38.670Z,13.88
2023-05-01T05:41:38.600Z,13.83
2023-05-01T05:42:38.575Z,13.86
2023-05-01T05:43:38.548Z,13.83
2023-05-01T05:44:38.480Z,13.90
2023-05-01T05:45:38.598Z,14.05
2023-05-01T05:46:38.582Z,13.99
2023-05-01T05:47:38.409Z,13.90
2023-05-01T05:48:38.325Z,13.84
2023-05-01T05:49:38.305Z,13.87
2023-05-01T05:50:38.256Z,13.93
2023-05-01T05:51:38.216Z,13.83
2023-05-01T05:52:38.172Z,13.99
2023-05-01T05:53:38.150Z,13.98
2023-05-01T05:54:38.106Z,14.01
2023-05-01T05:55:38.056Z,13.93
2023-05-01T05:56:38.031Z,14.09
2023-05-01T05:57:37.983Z,14.05
2023-05-01T05:58:37.944Z,14.19
2023-05-01T05:59:37.912Z,14.17
2023-05-01T06:00:37.906Z,14.17
2023-05-01T06:01:37.851Z,14.11
2023-05-01T06:02:37.882Z,14.23
2023-05-01T06:03:37.901Z,14.31
2023-05-01T06:04:37.712Z,14.31
2023-05-01T06:05:37.735Z,14.29
2023-05-01T06:06:37.709Z,14.29
2023-05-01T06:07:37.613Z,14.39
2023-05-01T06:08:37.630Z,14.27
2023-05-01T06:09:37.531Z,14.34
2023-05-01T06:10:37.514Z,14.23
2023-05-01T06:11:37.450Z,14.27
2023-05-01T06:12:37.904Z,14.30
2023-05-01T06:13:37.372Z,14.36
2023-05-01T06:14:37.332Z,14.42
2023-05-01T06:15:37.339Z,14.38
2023-05-01T06:16:37.306Z,14.44
2023-05-01T06:17:37.279Z,14.56
2023-05-01T06:18:37.202Z,14.52
2023-05-01T06:19:37.155Z,14.54
2023-05-01T06:20:37.107Z,14.54
2023-05-01T06:21:37.080Z,14.53
2023-05-01T06:22:37.032Z,14.61
2023-05-01T06:23:37.004Z,14.66
2023-05-01T06:24:36.977Z,14.63
2023-05-01T06:25:36.920Z,14.72
2023-05-01T06:26:36.880Z,14.67
2023-05-01T06:27:36.846Z,14.85
2023-05-01T06:28:36.810Z,14.83
2023-05-01T06:29:36.769Z,14.82
2023-05-01T06:30:36.738Z,14.74
2023-05-01T06:31:36.796Z,14.67
2023-05-01T06:32:36.672Z,14.64
2023-05-01T06:33:36.757Z,14.75
2023-05-01T06:34:36.575Z,14.74
2023-05-01T06:35:36.534Z,14.69
2023-05-01T06:36:36.512Z,14.60
2023-05-01T06:37:36.468Z,14.80
2023-05-01T06:38:36.425Z,14.67
2023-05-01T06:39:36.393Z,14.86
2023-05-01T06:40:36.356Z,14.87
2023-05-01T06:41:36.347Z,14.98
2023-05-01T06:42:36.292Z,15.00
2023-05-01T06:43:36.251Z,15.07
2023-05-01T06:44:36.197Z,15.00
2023-05-01T06:45:36.210Z,15.09
2023-05-01T06:46:36.193Z,15.20
2023-05-01T06:47:36.158Z,15.22
2023-05-01T06:48:36.043Z,15.31
2023-05-01T06:49:36.028Z,15.28
2023-05-01T06:50:35.974Z,15.37
2023-05-01T06:51:35.950Z,15.30
2023-05-01T06:52:35.910Z,15.23
2023-05-01T06:53:35.874Z,15.18
2023-05-01T06:54:35.818Z,15.13
2023-05-01T06:55:36.035Z,15.23
2023-05-01T06:56:35.764Z,15.31
2023-05-01T06:57:35.710Z,15.48
2023-05-01T06:58:35.673Z,15.48
2023-05-01T06:59:35.633Z,15.49
2023-05-01T07:00:45.870Z,15.66
2023-05-01T07:01:35.816Z,15.58
2023-05-01T07:02:35.632Z,15.62
2023-05-01T07:03:35.529Z,15.62
2023-05-01T07:04:35.449Z,15.76
2023-05-01T07:05:35.420Z,15.64
2023-05-01T07:06:35.420Z,15.68
2023-05-01T07:07:35.363Z,15.59
2023-05-01T07:08:35.316Z,15.59
2023-05-01T07:09:35.265Z,15.56
2023-05-01T07:10:35.231Z,15.40
2023-05-01T07:11:35.192Z,15.37
2023-05-01T07:12:35.158Z,15.25
2023-05-01T07:13:35.134Z,15.22
2023-05-01T07:14:35.079Z,15.23
2023-05-01T07:15:35.049Z,15.35
2023-05-01T07:16:35.112Z,15.53
2023-05-01T07:17:35.037Z,15.35
2023-05-01T07:18:34.977Z,15.28
2023-05-01T07:19:34.918Z,15.25
2023-05-01T07:20:35.010Z,15.27
2023-05-01T07:21:34.823Z,15.33
2023-05-01T07:22:34.784Z,15.28
2023-05-01T07:23:34.750Z,15.33
2023-05-01T07:24:34.705Z,15.33
2023-05-01T07:25:34.684Z,15.27
2023-05-01T07:26:34.640Z,15.41
2023-05-01T07:27:34.598Z,15.53
2023-05-01T07:28:34.558Z,15.49
2023-05-01T07:29:34.528Z,15.52
2023-05-01T07:30:34.486Z,15.53
2023-05-01T07:31:34.520Z,15.59
2023-05-01T07:32:34.457Z,15.51
2023-05-01T07:33:34.387Z,15.60
2023-05-01T07:34:34.339Z,15.68
2023-05-01T07:35:34.315Z,15.68
2023-05-01T07:36:34.262Z,15.84
2023-05-01T07:37:34.238Z,16.03
2023-05-01T07:38:34.782Z,16.08
2023-05-01T07:39:34.160Z,16.13
2023-05-01T07:40:34.114Z,16.27
2023-05-01T07:41:34.078Z,16.34
2023-05-01T07:42:34.048Z,16.42
2023-05-01T07:43:34.027Z,16.36
2023-05-01T07:44:33.969Z,16.52
2023-05-01T07:45:34.041Z,16.50
2023-05-01T07:46:34.014Z,16.51
2023-05-01T07:47:33.915Z,16.62
2023-05-01T07:48:33.821Z,16.59
2023-05-01T07:49:34.785Z,16.52
2023-05-01T07:50:33.760Z,16.69
2023-05-01T07:51:33.719Z,16.54
2023-05-01T07:52:33.677Z,16.72
2023-05-01T07:53:33.669Z,16.51
2023-05-01T07:54:33.602Z,16.55
2023-05-01T07:55:33.579Z,16.37
2023-05-01T07:56:33.527Z,16.30
2023-05-01T07:57:33.494Z,16.41
2023-05-01T07:58:33.493Z,16.41
2023-05-01T07:59:33.429Z,16.50
2023-05-01T08:00:33.385Z,16.54
2023-05-01T08:01:33.362Z,16.82
2023-05-01T08:02:33.393Z,16.77
2023-05-01T08:03:33.408Z,16.75
2023-05-01T08:04:33.275Z,16.80
2023-05-01T08:05:33.206Z,17.07
2023-05-01T08:06:33.257Z,17.18
2023-05-01T08:07:33.148Z,17.32
2023-05-01T08:08:33.096Z,17.53
2023-05-01T08:09:33.135Z,17.38
2023-05-01T08:10:33.041Z,17.68
2023-05-01T08:11:32.996Z,17.80
2023-05-01T08:12:32.969Z,18.05
2023-05-01T08:13:32.936Z,18.13
2023-05-01T08:14:32.889Z,18.13
2023-05-01T08:15:32.860Z,18.11
2023-05-01T08:16:33.390Z,18.25
2023-05-01T08:17:32.836Z,18.32
2023-05-01T08:18:32.752Z,18.54
2023-05-01T08:19:32.733Z,18.59
2023-05-01T08:20:32.890Z,18.69
2023-05-01T08:21:32.650Z,18.94
2023-05-01T08:22:32.604Z,18.84
2023-05-01T08:23:32.592Z,18.83
2023-05-01T08:24:32.539Z,18.84
2023-05-01T08:25:32.511Z,18.93
2023-05-01T08:26:32.476Z,19.57
2023-05-01T08:27:32.452Z,19.64
2023-05-01T08:28:32.423Z,20.16
2023-05-01T08:29:32.376Z,20.12
2023-05-01T08:30:32.345Z,19.85
2023-05-01T08:31:32.393Z,19.75
2023-05-01T08:32:32.367Z,20.16
2023-05-01T08:33:32.246Z,20.75
2023-05-01T08:34:32.229Z,21.06
2023-05-01T08:35:32.185Z,20.91
2023-05-01T08:36:32.139Z,20.94
2023-05-01T08:37:32.117Z,20.72
2023-05-01T08:38:32.079Z,20.48
2023-05-01T08:39:32.074Z,20.38
2023-05-01T08:40:32.019Z,20.26
2023-05-01T08:41:32.001Z,20.26
2023-05-01T08:42:32.485Z,20.26
2023-05-01T08:43:31.937Z,20.25
2023-05-01T08:44:31.885Z,20.26
2023-05-01T08:45:31.859Z,19.79
2023-05-01T08:46:31.824Z,19.83
2023-05-01T08:47:31.827Z,20.20
2023-05-01T08:48:31.769Z,20.27
2023-05-01T08:49:31.740Z,20.60
2023-05-01T08:50:31.750Z,20.66
2023-05-01T08:51:31.660Z,20.19
2023-05-01T08:52:31.619Z,19.71
2023-05-01T08:53:31.590Z,19.55
2023-05-01T08:54:31.594Z,19.50
2023-05-01T08:55:31.526Z,19.79
2023-05-01T08:56:31.515Z,19.87
2023-05-01T08:57:31.490Z,19.86
2023-05-01T08:58:31.427Z,20.02
2023-05-01T08:59:31.398Z,19.70
2023-05-01T09:00:31.392Z,19.85
2023-05-01T09:01:31.375Z,19.85
2023-05-01T09:02:31.379Z,20.05
2023-05-01T09:03:31.308Z,20.30
2023-05-01T09:04:31.298Z,20.56
2023-05-01T09:05:31.304Z,20.98
2023-05-01T09:06:31.219Z,21.40
2023-05-01T09:07:31.176Z,21.45
2023-05-01T09:08:31.281Z,21.55
2023-05-01T09:09:31.123Z,21.91
2023-05-01T09:10:32.941Z,22.49
2023-05-01T09:11:31.012Z,22.70
2023-05-01T09:12:30.980Z,22.75
2023-05-01T09:13:30.964Z,23.15
2023-05-01T09:14:30.933Z,23.15
2023-05-01T09:15:30.905Z,23.12
2023-05-01T09:16:30.935Z,23.31
2023-05-01T09:17:30.888Z,23.25
2023-05-01T09:18:30.799Z,23.38
2023-05-01T09:19:30.782Z,23.35
2023-05-01T09:20:30.730Z,23.12
2023-05-01T09:21:30.691Z,22.96
2023-05-01T09:22:30.668Z,22.94
2023-05-01T09:23:30.661Z,22.91
2023-05-01T09:24:30.602Z,22.93
2023-05-01T09:25:30.578Z,23.21
2023-05-01T09:26:30.548Z,23.23
2023-05-01T09:27:30.519Z,23.15
2023-05-01T09:28:30.488Z,22.81
2023-05-01T09:29:30.513Z,22.75
2023-05-01T09:30:30.443Z,22.89
2023-05-01T09:31:30.552Z,22.79
2023-05-01T09:32:30.522Z,22.93
2023-05-01T09:33:30.388Z,22.60
2023-05-01T09:34:31.261Z,22.52
2023-05-01T09:35:30.295Z,22.45
2023-05-01T09:36:30.246Z,22.54
2023-05-01T09:37:30.211Z,22.46
2023-05-01T09:38:30.188Z,22.86
2023-05-01T09:39:30.174Z,23.19
2023-05-01T09:40:30.373Z,23.42
2023-05-01T09:41:30.160Z,23.90
2023-05-01T09:42:30.091Z,24.31
2023-05-01T09:43:30.070Z,24.61
2023-05-01T09:44:30.006Z,24.97
2023-05-01T09:45:29.976Z,24.94
2023-05-01T09:46:30.002Z,24.80
2023-05-01T09:47:30.059Z,24.51
2023-05-01T09:48:31.042Z,23.87
2023-05-01T09:49:29.855Z,23.25
2023-05-01T09:50:29.843Z,22.94
2023-05-01T09:51:29.830Z,21.75
2023-05-01T09:52:29.786Z,21.42
2023-05-01T09:53:29.769Z,21.45
2023-05-01T09:54:29.716Z,21.53
2023-05-01T09:55:29.684Z,21.59
2023-05-01T09:56:29.672Z,21.93
2023-05-01T09:57:29.648Z,22.17
2023-05-01T09:58:29.599Z,22.36
2023-05-01T09:59:29.593Z,22.66
2023-05-01T10:00:29.548Z,22.81
2023-05-01T10:01:29.564Z,23.21
2023-05-01T10:02:29.625Z,23.32
2023-05-01T10:03:29.551Z,23.14
2023-05-01T10:04:29.436Z,23.15
2023-05-01T10:05:29.398Z,23.23
2023-05-01T10:06:29.430Z,23.41
2023-05-01T10:07:29.374Z,23.35
2023-05-01T10:08:29.412Z,23.42
2023-05-01T10:09:30.329Z,23.44
2023-05-01T10:10:29.274Z,23.79
2023-05-01T10:11:29.208Z,23.81
2023-05-01T10:12:29.183Z,23.79
2023-05-01T10:13:29.158Z,23.42
2023-05-01T10:14:29.123Z,23.39
2023-05-01T10:15:29.111Z,23.34
2023-05-01T10:16:29.072Z,23.37
2023-05-01T10:17:29.094Z,23.32
2023-05-01T10:18:29.025Z,22.94
2023-05-01T10:19:28.968Z,22.63
2023-05-01T10:20:28.952Z,22.74
2023-05-01T10:21:28.927Z,22.82
2023-05-01T10:22:28.919Z,23.31
2023-05-01T10:23:28.847Z,23.41
2023-05-01T10:24:28.839Z,23.75
2023-05-01T10:25:28.908Z,23.89
2023-05-01T10:26:28.769Z,24.15
2023-05-01T10:27:28.744Z,24.18
2023-05-01T10:28:28.881Z,24.18
2023-05-01T10:29:28.683Z,23.94
2023-05-01T10:30:28.650Z,23.93
2023-05-01T10:31:28.648Z,24.04
2023-05-01T10:32:28.591Z,24.31
2023-05-01T10:33:28.554Z,24.52
2023-05-01T10:34:28.720Z,24.53
2023-05-01T10:35:28.489Z,24.74
2023-05-01T10:36:28.498Z,25.08
2023-05-01T10:37:28.453Z,25.19
2023-05-01T10:38:28.407Z,25.26
2023-05-01T10:39:28.413Z,25.35
2023-05-01T10:40:28.366Z,25.16
2023-05-01T10:41:28.315Z,25.22
2023-05-01T10:42:28.289Z,25.35
2023-05-01T10:43:28.267Z,25.24
2023-05-01T10:44:28.244Z,24.77
2023-05-01T10:45:28.235Z,24.68
2023-05-01T10:46:28.307Z,24.56
2023-05-01T10:47:28.190Z,24.16
2023-05-01T10:48:28.119Z,24.09
2023-05-01T10:49:28.104Z,24.44
2023-05-01T10:50:28.064Z,24.39
2023-05-01T10:51:28.361Z,24.77
2023-05-01T10:52:28.016Z,25.14
2023-05-01T10:53:28.003Z,25.08
2023-05-01T10:54:28.000Z,25.14
2023-05-01T10:55:27.946Z,24.97
2023-05-01T10:56:27.899Z,24.98
2023-05-01T10:57:27.886Z,25.07
2023-05-01T10:58:27.845Z,25.19
2023-05-01T10:59:27.841Z,25.44
2023-05-01T11:00:27.794Z,25.42
2023-05-01T11:01:27.788Z,25.38
2023-05-01T11:02:27.803Z,25.20
2023-05-01T11:03:27.702Z,24.86
2023-05-01T11:04:27.690Z,24.56
2023-05-01T11:05:38.244Z,24.09
2023-05-01T11:06:27.715Z,23.97
2023-05-01T11:07:27.608Z,23.62
2023-05-01T11:08:27.583Z,23.44
2023-05-01T11:09:27.534Z,23.18
2023-05-01T11:10:27.500Z,23.22
2023-05-01T11:11:27.468Z,23.03
2023-05-01T11:12:27.455Z,23.07
2023-05-01T11:13:27.428Z,23.12
2023-05-01T11:14:27.380Z,22.94
2023-05-01T11:15:27.359Z,22.91
2023-05-01T11:16:27.370Z,22.84
2023-05-01T11:17:27.299Z,23.23
2023-05-01T11:18:27.279Z,23.34
2023-05-01T11:19:29.356Z,23.50
2023-05-01T11:20:27.217Z,23.64
2023-05-01T11:21:27.182Z,23.86
2023-05-01T11:22:27.171Z,24.16
2023-05-01T11:23:27.145Z,24.29
2023-05-01T11:24:27.093Z,24.49
2023-05-01T11:25:27.061Z,24.60
2023-05-01T11:26:27.044Z,24.59
2023-05-01T11:27:27.012Z,24.30
2023-05-01T11:28:26.977Z,24.09
2023-05-01T11:29:26.963Z,24.05
2023-05-01T11:30:26.910Z,24.04
2023-05-01T11:31:26.937Z,24.02
2023-05-01T11:32:27.088Z,24.04
2023-05-01T11:33:26.835Z,24.24
2023-05-01T11:34:26.831Z,24.48
2023-05-01T11:35:26.778Z,25.01
2023-05-01T11:36:26.769Z,24.94
2023-05-01T11:37:26.710Z,24.89
2023-05-01T11:38:26.704Z,24.49
2023-05-01T11:39:26.655Z,24.60
2023-05-01T11:40:26.633Z,24.77
2023-05-01T11:41:26.596Z,24.92
2023-05-01T11:42:26.615Z,24.86
2023-05-01T11:43:26.541Z,24.77
2023-05-01T11:44:26.510Z,24.86
2023-05-01T11:45:26.483Z,24.87
2023-05-01T11:46:26.520Z,24.84
2023-05-01T11:47:26.489Z,25.02
2023-05-01T11:48:26.429Z,25.24
2023-05-01T11:49:26.366Z,25.42
2023-05-01T11:50:26.360Z,25.39
2023-05-01T11:51:26.311Z,25.45
2023-05-01T11:52:26.279Z,25.56
2023-05-01T11:53:26.264Z,25.22
2023-05-01T11:54:26.236Z,24.84
2023-05-01T11:55:26.198Z,24.59
2023-05-01T11:56:27.452Z,24.29
2023-05-01T11:57:26.139Z,24.49
2023-05-01T11:58:26.196Z,24.52
2023-05-01T11:59:26.110Z,24.92
2023-05-01T12:00:26.070Z,25.17
2023-05-01T12:01:26.043Z,25.29
2023-05-01T12:02:26.060Z,24.87
2023-05-01T12:03:26.066Z,24.51
2023-05-01T12:04:27.523Z,24.41
2023-05-01T12:05:25.901Z,24.34
2023-05-01T12:06:25.926Z,23.81
2023-05-01T12:07:25.857Z,23.62
2023-05-01T12:08:25.822Z,23.41
2023-05-01T12:09:25.790Z,23.23
2023-05-01T12:10:25.757Z,23.16
2023-05-01T12:11:25.736Z,23.22
2023-05-01T12:12:25.794Z,23.12
2023-05-01T12:13:25.669Z,23.00
2023-05-01T12:14:25.644Z,22.75
2023-05-01T12:15:25.623Z,22.85
2023-05-01T12:16:25.628Z,22.81
2023-05-01T12:17:25.759Z,22.69
2023-05-01T12:18:25.578Z,22.66
2023-05-01T12:19:25.630Z,22.69
2023-05-01T12:20:25.475Z,22.78
2023-05-01T12:21:25.432Z,22.66
2023-05-01T12:22:25.404Z,22.69
2023-05-01T12:23:25.379Z,22.67
2023-05-01T12:24:25.340Z,22.64
2023-05-01T12:25:25.313Z,22.57
2023-05-01T12:26:25.323Z,22.66
2023-05-01T12:27:25.250Z,22.42
2023-05-01T12:28:25.209Z,22.45
2023-05-01T12:29:25.188Z,22.38
2023-05-01T12:30:25.151Z,22.35
2023-05-01T12:31:25.128Z,22.23
2023-05-01T12:32:25.117Z,22.15
2023-05-01T12:33:25.048Z,22.23
2023-05-01T12:34:25.091Z,22.21
2023-05-01T12:35:25.022Z,22.19
2023-05-01T12:36:24.983Z,22.01
2023-05-01T12:37:25.012Z,21.99
2023-05-01T12:38:25.028Z,21.79
2023-05-01T12:39:24.864Z,21.49
2023-05-01T12:40:24.839Z,21.52
2023-05-01T12:41:24.792Z,21.63
2023-05-01T12:42:24.757Z,21.56
2023-05-01T12:43:24.743Z,21.64
2023-05-01T12:44:24.695Z,21.58
2023-05-01T12:45:24.677Z,21.38
2023-05-01T12:46:24.714Z,21.46
2023-05-01T12:47:24.605Z,21.64
2023-05-01T12:48:24.576Z,21.83
2023-05-01T12:49:24.530Z,21.81
2023-05-01T12:50:24.504Z,21.82
2023-05-01T12:51:24.460Z,21.93
2023-05-01T12:52:24.425Z,21.89
2023-05-01T12:53:24.428Z,21.85
2023-05-01T12:54:24.384Z,21.85
2023-05-01T12:55:24.325Z,21.71
2023-05-01T12:56:24.332Z,21.49
2023-05-01T12:57:24.288Z,21.53
2023-05-01T12:58:24.240Z,21.30
2023-05-01T12:59:24.216Z,21.31